sensor_id;sensor_type;location;lat;lon;timestamp;P1;durP1;ratioP1;P2;durP2;ratioP2
39778;SDS011;25454;49.878;8.618;2022-12-11T00:00:25;29.53;;;18.70;;
39778;SDS011;25454;49.878;8.618;2022-12-11T00:05:25;25.30;;;17.10;;
39778;SDS011;25454;49.878;8.618;2022-12-11T00:10:26;28.63;;;18.70;;
39778;SDS011;25454;49.878;8.618;2022-12-11T00:15:27;27.20;;;18.20;;
39778;SDS011;25454;49.878;8.618;2022-12-11T00:20:28;26.90;;;17.63;;
39778;SDS011;25454;49.878;8.618;2022-12-11T00:25:29;27.00;;;17.87;;
39778;SDS011;25454;49.878;8.618;2022-12-11T00:30:29;28.03;;;18.67;;
39778;SDS011;25454;49.878;8.618;2022-12-11T00:35:30;29.47;;;19.17;;
39778;SDS011;25454;49.878;8.618;2022-12-11T00:40:34;26.67;;;18.43;;
39778;SDS011;25454;49.878;8.618;2022-12-11T00:45:36;27.53;;;18.37;;
39778;SDS011;25454;49.878;8.618;2022-12-11T00:50:37;31.03;;;19.00;;
39778;SDS011;25454;49.878;8.618;2022-12-11T00:55:39;26.10;;;17.53;;
39778;SDS011;25454;49.878;8.618;2022-12-11T01:00:41;26.57;;;18.20;;
39778;SDS011;25454;49.878;8.618;2022-12-11T01:05:50;27.87;;;17.40;;
39778;SDS011;25454;49.878;8.618;2022-12-11T01:10:59;24.90;;;16.47;;
39778;SDS011;25454;49.878;8.618;2022-12-11T01:16:11;30.17;;;19.70;;
39778;SDS011;25454;49.878;8.618;2022-12-11T01:21:13;29.57;;;18.47;;
39778;SDS011;25454;49.878;8.618;2022-12-11T01:26:14;29.63;;;18.57;;
39778;SDS011;25454;49.878;8.618;2022-12-11T01:31:15;28.87;;;17.60;;
39778;SDS011;25454;49.878;8.618;2022-12-11T01:36:17;26.97;;;18.27;;
39778;SDS011;25454;49.878;8.618;2022-12-11T01:41:19;27.93;;;17.77;;
39778;SDS011;25454;49.878;8.618;2022-12-11T01:46:20;26.93;;;18.23;;
39778;SDS011;25454;49.878;8.618;2022-12-11T01:51:21;29.50;;;18.20;;
39778;SDS011;25454;49.878;8.618;2022-12-11T01:56:23;28.07;;;17.40;;
39778;SDS011;25454;49.878;8.618;2022-12-11T02:01:30;28.93;;;18.20;;
39778;SDS011;25454;49.878;8.618;2022-12-11T02:06:52;29.43;;;18.33;;
39778;SDS011;25454;49.878;8.618;2022-12-11T02:12:05;28.83;;;18.20;;
39778;SDS011;25454;49.878;8.618;2022-12-11T02:17:27;28.73;;;18.80;;
39778;SDS011;25454;49.878;8.618;2022-12-11T02:33:51;32.07;;;18.93;;
39778;SDS011;25454;49.878;8.618;2022-12-11T02:39:02;26.67;;;17.27;;
39778;SDS011;25454;49.878;8.618;2022-12-11T02:44:04;31.43;;;20.03;;
39778;SDS011;25454;49.878;8.618;2022-12-11T02:49:06;26.30;;;18.13;;
39778;SDS011;25454;49.878;8.618;2022-12-11T02:54:21;28.23;;;19.83;;
39778;SDS011;25454;49.878;8.618;2022-12-11T02:59:27;26.67;;;18.37;;
39778;SDS011;25454;49.878;8.618;2022-12-11T03:04:37;30.87;;;20.13;;
39778;SDS011;25454;49.878;8.618;2022-12-11T03:09:43;28.03;;;19.10;;
39778;SDS011;25454;49.878;8.618;2022-12-11T03:14:45;27.77;;;19.30;;
39778;SDS011;25454;49.878;8.618;2022-12-11T03:20:34;25.70;;;18.30;;
39778;SDS011;25454;49.878;8.618;2022-12-11T03:25:16;27.47;;;19.20;;
39778;SDS011;25454;49.878;8.618;2022-12-11T03:30:22;29.57;;;19.97;;
39778;SDS011;25454;49.878;8.618;2022-12-11T03:40:27;30.20;;;19.47;;
39778;SDS011;25454;49.878;8.618;2022-12-11T03:45:32;29.17;;;19.20;;
39778;SDS011;25454;49.878;8.618;2022-12-11T03:50:33;28.90;;;19.17;;
39778;SDS011;25454;49.878;8.618;2022-12-11T03:55:35;27.83;;;19.23;;
39778;SDS011;25454;49.878;8.618;2022-12-11T04:00:38;29.93;;;19.67;;
39778;SDS011;25454;49.878;8.618;2022-12-11T04:05:40;29.73;;;19.50;;
39778;SDS011;25454;49.878;8.618;2022-12-11T04:10:45;26.97;;;18.43;;
39778;SDS011;25454;49.878;8.618;2022-12-11T04:15:46;30.33;;;20.43;;
39778;SDS011;25454;49.878;8.618;2022-12-11T04:20:46;28.67;;;18.97;;
39778;SDS011;25454;49.878;8.618;2022-12-11T04:26:07;28.50;;;18.97;;
39778;SDS011;25454;49.878;8.618;2022-12-11T04:31:18;28.73;;;19.53;;
39778;SDS011;25454;49.878;8.618;2022-12-11T04:36:20;31.90;;;20.80;;
39778;SDS011;25454;49.878;8.618;2022-12-11T04:41:20;28.53;;;19.43;;
39778;SDS011;25454;49.878;8.618;2022-12-11T04:46:22;29.37;;;20.03;;
39778;SDS011;25454;49.878;8.618;2022-12-11T04:51:23;29.90;;;20.13;;
39778;SDS011;25454;49.878;8.618;2022-12-11T04:56:24;32.70;;;21.73;;
39778;SDS011;25454;49.878;8.618;2022-12-11T05:01:25;32.33;;;20.37;;
39778;SDS011;25454;49.878;8.618;2022-12-11T05:06:26;31.43;;;21.50;;
39778;SDS011;25454;49.878;8.618;2022-12-11T05:11:26;33.43;;;21.97;;
39778;SDS011;25454;49.878;8.618;2022-12-11T05:16:27;32.00;;;21.80;;
39778;SDS011;25454;49.878;8.618;2022-12-11T05:21:27;32.00;;;21.07;;
39778;SDS011;25454;49.878;8.618;2022-12-11T05:26:31;32.90;;;22.50;;
39778;SDS011;25454;49.878;8.618;2022-12-11T05:31:31;33.50;;;21.63;;
39778;SDS011;25454;49.878;8.618;2022-12-11T05:36:32;33.67;;;22.03;;
39778;SDS011;25454;49.878;8.618;2022-12-11T05:41:33;30.27;;;22.73;;
39778;SDS011;25454;49.878;8.618;2022-12-11T05:46:34;34.83;;;23.43;;
39778;SDS011;25454;49.878;8.618;2022-12-11T05:51:34;34.60;;;23.67;;
39778;SDS011;25454;49.878;8.618;2022-12-11T05:56:35;34.83;;;23.57;;
39778;SDS011;25454;49.878;8.618;2022-12-11T06:01:38;39.90;;;24.73;;
39778;SDS011;25454;49.878;8.618;2022-12-11T06:06:40;38.70;;;25.50;;
39778;SDS011;25454;49.878;8.618;2022-12-11T06:11:42;39.07;;;24.63;;
39778;SDS011;25454;49.878;8.618;2022-12-11T06:16:43;34.67;;;22.93;;
39778;SDS011;25454;49.878;8.618;2022-12-11T06:21:44;33.53;;;22.70;;
39778;SDS011;25454;49.878;8.618;2022-12-11T06:26:45;37.43;;;25.00;;
39778;SDS011;25454;49.878;8.618;2022-12-11T06:31:45;37.57;;;24.97;;
39778;SDS011;25454;49.878;8.618;2022-12-11T06:36:46;37.13;;;23.90;;
39778;SDS011;25454;49.878;8.618;2022-12-11T06:41:46;33.27;;;22.67;;
39778;SDS011;25454;49.878;8.618;2022-12-11T06:46:47;33.50;;;22.40;;
39778;SDS011;25454;49.878;8.618;2022-12-11T06:51:47;35.17;;;22.47;;
39778;SDS011;25454;49.878;8.618;2022-12-11T06:56:48;32.93;;;22.37;;
39778;SDS011;25454;49.878;8.618;2022-12-11T07:01:52;34.30;;;22.90;;
39778;SDS011;25454;49.878;8.618;2022-12-11T07:06:52;30.23;;;21.07;;
39778;SDS011;25454;49.878;8.618;2022-12-11T07:11:53;34.27;;;22.77;;
39778;SDS011;25454;49.878;8.618;2022-12-11T07:16:53;35.93;;;22.77;;
39778;SDS011;25454;49.878;8.618;2022-12-11T07:21:54;33.70;;;22.20;;
39778;SDS011;25454;49.878;8.618;2022-12-11T07:26:54;34.53;;;22.37;;
39778;SDS011;25454;49.878;8.618;2022-12-11T07:31:55;34.80;;;23.17;;
39778;SDS011;25454;49.878;8.618;2022-12-11T07:36:57;32.10;;;22.30;;
39778;SDS011;25454;49.878;8.618;2022-12-11T07:41:57;33.60;;;21.30;;
39778;SDS011;25454;49.878;8.618;2022-12-11T07:46:58;35.63;;;22.37;;
39778;SDS011;25454;49.878;8.618;2022-12-11T07:51:58;33.83;;;22.23;;
39778;SDS011;25454;49.878;8.618;2022-12-11T07:56:59;32.97;;;22.00;;
39778;SDS011;25454;49.878;8.618;2022-12-11T08:02:00;35.03;;;22.83;;
39778;SDS011;25454;49.878;8.618;2022-12-11T08:07:00;32.97;;;22.47;;
39778;SDS011;25454;49.878;8.618;2022-12-11T08:12:01;33.83;;;22.50;;
39778;SDS011;25454;49.878;8.618;2022-12-11T08:17:01;31.70;;;21.90;;
39778;SDS011;25454;49.878;8.618;2022-12-11T08:22:02;34.30;;;22.53;;
39778;SDS011;25454;49.878;8.618;2022-12-11T08:27:03;32.30;;;22.37;;
39778;SDS011;25454;49.878;8.618;2022-12-11T08:32:04;32.20;;;21.33;;
39778;SDS011;25454;49.878;8.618;2022-12-11T08:37:05;34.60;;;22.33;;
39778;SDS011;25454;49.878;8.618;2022-12-11T08:42:05;34.20;;;23.47;;
39778;SDS011;25454;49.878;8.618;2022-12-11T08:47:06;33.13;;;22.87;;
39778;SDS011;25454;49.878;8.618;2022-12-11T08:52:08;33.53;;;22.43;;
39778;SDS011;25454;49.878;8.618;2022-12-11T08:57:09;33.80;;;21.17;;
39778;SDS011;25454;49.878;8.618;2022-12-11T09:02:10;35.73;;;23.03;;
39778;SDS011;25454;49.878;8.618;2022-12-11T09:07:12;35.50;;;23.47;;
39778;SDS011;25454;49.878;8.618;2022-12-11T09:12:12;32.93;;;22.37;;
39778;SDS011;25454;49.878;8.618;2022-12-11T09:17:13;37.07;;;23.13;;
39778;SDS011;25454;49.878;8.618;2022-12-11T09:22:13;34.60;;;23.27;;
39778;SDS011;25454;49.878;8.618;2022-12-11T09:27:14;35.17;;;22.97;;
39778;SDS011;25454;49.878;8.618;2022-12-11T09:32:14;38.50;;;22.87;;
39778;SDS011;25454;49.878;8.618;2022-12-11T09:37:15;36.53;;;23.47;;
39778;SDS011;25454;49.878;8.618;2022-12-11T09:42:42;38.60;;;23.57;;
39778;SDS011;25454;49.878;8.618;2022-12-11T09:47:49;35.97;;;23.30;;
39778;SDS011;25454;49.878;8.618;2022-12-11T09:52:56;37.60;;;23.37;;
39778;SDS011;25454;49.878;8.618;2022-12-11T10:14:45;36.30;;;24.00;;
39778;SDS011;25454;49.878;8.618;2022-12-11T10:20:24;40.37;;;23.77;;
39778;SDS011;25454;49.878;8.618;2022-12-11T10:25:31;37.40;;;24.43;;
39778;SDS011;25454;49.878;8.618;2022-12-11T10:36:01;38.07;;;23.77;;
39778;SDS011;25454;49.878;8.618;2022-12-11T10:41:03;41.33;;;23.47;;
39778;SDS011;25454;49.878;8.618;2022-12-11T10:51:20;33.27;;;22.40;;
39778;SDS011;25454;49.878;8.618;2022-12-11T10:56:32;36.03;;;22.53;;
39778;SDS011;25454;49.878;8.618;2022-12-11T11:01:35;35.83;;;22.43;;
39778;SDS011;25454;49.878;8.618;2022-12-11T11:06:35;36.97;;;23.27;;
39778;SDS011;25454;49.878;8.618;2022-12-11T11:11:36;36.73;;;23.00;;
39778;SDS011;25454;49.878;8.618;2022-12-11T11:16:39;35.97;;;23.70;;
39778;SDS011;25454;49.878;8.618;2022-12-11T11:21:46;38.70;;;24.50;;
39778;SDS011;25454;49.878;8.618;2022-12-11T11:26:52;38.33;;;24.60;;
39778;SDS011;25454;49.878;8.618;2022-12-11T11:31:53;36.97;;;23.93;;
39778;SDS011;25454;49.878;8.618;2022-12-11T11:36:54;33.03;;;21.77;;
39778;SDS011;25454;49.878;8.618;2022-12-11T11:42:01;34.50;;;23.57;;
39778;SDS011;25454;49.878;8.618;2022-12-11T11:47:29;35.20;;;23.63;;
39778;SDS011;25454;49.878;8.618;2022-12-11T11:52:38;39.60;;;24.40;;
39778;SDS011;25454;49.878;8.618;2022-12-11T11:57:59;37.67;;;23.43;;
39778;SDS011;25454;49.878;8.618;2022-12-11T12:03:09;37.50;;;23.43;;
39778;SDS011;25454;49.878;8.618;2022-12-11T12:08:28;37.43;;;23.60;;
39778;SDS011;25454;49.878;8.618;2022-12-11T12:24:42;34.43;;;22.33;;
39778;SDS011;25454;49.878;8.618;2022-12-11T12:30:01;33.00;;;22.03;;
39778;SDS011;25454;49.878;8.618;2022-12-11T12:40:22;37.60;;;22.77;;
39778;SDS011;25454;49.878;8.618;2022-12-11T12:51:03;33.80;;;23.03;;
39778;SDS011;25454;49.878;8.618;2022-12-11T12:56:05;36.73;;;23.63;;
39778;SDS011;25454;49.878;8.618;2022-12-11T13:06:09;37.73;;;23.83;;
39778;SDS011;25454;49.878;8.618;2022-12-11T13:11:10;40.90;;;23.80;;
39778;SDS011;25454;49.878;8.618;2022-12-11T13:21:30;37.83;;;24.63;;
39778;SDS011;25454;49.878;8.618;2022-12-11T13:26:32;41.60;;;23.23;;
39778;SDS011;25454;49.878;8.618;2022-12-11T13:36:34;37.20;;;24.00;;
39778;SDS011;25454;49.878;8.618;2022-12-11T13:41:36;42.97;;;24.63;;
39778;SDS011;25454;49.878;8.618;2022-12-11T13:46:37;35.07;;;22.50;;
39778;SDS011;25454;49.878;8.618;2022-12-11T13:51:38;39.97;;;24.00;;
39778;SDS011;25454;49.878;8.618;2022-12-11T13:56:51;37.70;;;23.43;;
39778;SDS011;25454;49.878;8.618;2022-12-11T14:01:59;39.10;;;23.53;;
39778;SDS011;25454;49.878;8.618;2022-12-11T14:07:05;37.33;;;22.40;;
39778;SDS011;25454;49.878;8.618;2022-12-11T14:12:15;39.30;;;23.90;;
39778;SDS011;25454;49.878;8.618;2022-12-11T14:17:29;37.50;;;23.47;;
39778;SDS011;25454;49.878;8.618;2022-12-11T14:22:31;39.77;;;23.47;;
39778;SDS011;25454;49.878;8.618;2022-12-11T14:27:32;38.60;;;24.13;;
39778;SDS011;25454;49.878;8.618;2022-12-11T14:32:37;39.73;;;22.60;;
39778;SDS011;25454;49.878;8.618;2022-12-11T14:37:42;36.30;;;22.40;;
39778;SDS011;25454;49.878;8.618;2022-12-11T14:42:44;37.47;;;21.80;;
39778;SDS011;25454;49.878;8.618;2022-12-11T14:47:50;37.90;;;23.90;;
39778;SDS011;25454;49.878;8.618;2022-12-11T14:53:00;38.83;;;23.30;;
39778;SDS011;25454;49.878;8.618;2022-12-11T14:58:04;42.90;;;24.93;;
39778;SDS011;25454;49.878;8.618;2022-12-11T15:03:34;37.10;;;23.23;;
39778;SDS011;25454;49.878;8.618;2022-12-11T15:08:38;40.10;;;24.27;;
39778;SDS011;25454;49.878;8.618;2022-12-11T15:13:48;43.60;;;25.07;;
39778;SDS011;25454;49.878;8.618;2022-12-11T15:18:58;37.53;;;23.10;;
39778;SDS011;25454;49.878;8.618;2022-12-11T15:24:00;35.63;;;22.33;;
39778;SDS011;25454;49.878;8.618;2022-12-11T15:29:04;33.53;;;21.03;;
39778;SDS011;25454;49.878;8.618;2022-12-11T15:34:22;36.80;;;21.87;;
39778;SDS011;25454;49.878;8.618;2022-12-11T15:39:23;36.70;;;22.13;;
39778;SDS011;25454;49.878;8.618;2022-12-11T15:44:23;39.27;;;23.43;;
39778;SDS011;25454;49.878;8.618;2022-12-11T15:49:24;35.20;;;21.73;;
39778;SDS011;25454;49.878;8.618;2022-12-11T15:54:24;39.53;;;22.47;;
39778;SDS011;25454;49.878;8.618;2022-12-11T15:59:25;39.20;;;23.70;;
39778;SDS011;25454;49.878;8.618;2022-12-11T16:04:26;35.67;;;22.47;;
39778;SDS011;25454;49.878;8.618;2022-12-11T16:09:26;40.17;;;23.57;;
39778;SDS011;25454;49.878;8.618;2022-12-11T16:14:27;42.63;;;24.50;;
39778;SDS011;25454;49.878;8.618;2022-12-11T16:19:27;37.17;;;23.03;;
39778;SDS011;25454;49.878;8.618;2022-12-11T16:24:29;38.90;;;22.67;;
39778;SDS011;25454;49.878;8.618;2022-12-11T16:29:33;38.60;;;24.13;;
39778;SDS011;25454;49.878;8.618;2022-12-11T16:34:35;42.53;;;23.93;;
39778;SDS011;25454;49.878;8.618;2022-12-11T16:39:36;40.63;;;24.30;;
39778;SDS011;25454;49.878;8.618;2022-12-11T16:44:37;41.37;;;23.93;;
39778;SDS011;25454;49.878;8.618;2022-12-11T16:49:38;41.10;;;23.77;;
39778;SDS011;25454;49.878;8.618;2022-12-11T16:54:40;39.40;;;23.50;;
39778;SDS011;25454;49.878;8.618;2022-12-11T16:59:40;42.67;;;23.33;;
39778;SDS011;25454;49.878;8.618;2022-12-11T17:04:42;38.63;;;22.90;;
39778;SDS011;25454;49.878;8.618;2022-12-11T17:09:42;39.73;;;24.27;;
39778;SDS011;25454;49.878;8.618;2022-12-11T17:14:43;43.50;;;24.30;;
39778;SDS011;25454;49.878;8.618;2022-12-11T17:19:44;40.57;;;23.77;;
39778;SDS011;25454;49.878;8.618;2022-12-11T17:24:45;42.20;;;25.13;;
39778;SDS011;25454;49.878;8.618;2022-12-11T17:29:45;41.67;;;25.13;;
39778;SDS011;25454;49.878;8.618;2022-12-11T17:34:48;37.90;;;21.67;;
39778;SDS011;25454;49.878;8.618;2022-12-11T17:39:49;38.10;;;21.70;;
39778;SDS011;25454;49.878;8.618;2022-12-11T17:44:50;38.33;;;23.17;;
39778;SDS011;25454;49.878;8.618;2022-12-11T17:49:51;42.60;;;23.70;;
39778;SDS011;25454;49.878;8.618;2022-12-11T17:54:51;41.03;;;23.97;;
39778;SDS011;25454;49.878;8.618;2022-12-11T17:59:52;41.23;;;24.63;;
39778;SDS011;25454;49.878;8.618;2022-12-11T18:04:54;36.70;;;21.87;;
39778;SDS011;25454;49.878;8.618;2022-12-11T18:09:54;40.20;;;23.90;;
39778;SDS011;25454;49.878;8.618;2022-12-11T18:14:58;41.33;;;23.43;;
39778;SDS011;25454;49.878;8.618;2022-12-11T18:20:00;41.83;;;24.70;;
39778;SDS011;25454;49.878;8.618;2022-12-11T18:25:01;38.83;;;24.03;;
39778;SDS011;25454;49.878;8.618;2022-12-11T18:30:02;40.00;;;24.10;;
39778;SDS011;25454;49.878;8.618;2022-12-11T18:35:03;42.90;;;23.60;;
39778;SDS011;25454;49.878;8.618;2022-12-11T18:40:04;44.83;;;26.77;;
39778;SDS011;25454;49.878;8.618;2022-12-11T18:45:07;42.23;;;24.57;;
39778;SDS011;25454;49.878;8.618;2022-12-11T18:50:08;40.50;;;22.80;;
39778;SDS011;25454;49.878;8.618;2022-12-11T18:55:08;41.47;;;23.60;;
39778;SDS011;25454;49.878;8.618;2022-12-11T19:00:09;39.10;;;23.00;;
39778;SDS011;25454;49.878;8.618;2022-12-11T19:05:10;36.90;;;22.50;;
39778;SDS011;25454;49.878;8.618;2022-12-11T19:10:11;42.50;;;24.00;;
39778;SDS011;25454;49.878;8.618;2022-12-11T19:15:12;42.00;;;24.23;;
39778;SDS011;25454;49.878;8.618;2022-12-11T19:20:12;37.47;;;22.70;;
39778;SDS011;25454;49.878;8.618;2022-12-11T19:25:13;38.70;;;23.43;;
39778;SDS011;25454;49.878;8.618;2022-12-11T19:30:14;39.37;;;24.40;;
39778;SDS011;25454;49.878;8.618;2022-12-11T19:35:14;41.50;;;24.80;;
39778;SDS011;25454;49.878;8.618;2022-12-11T19:40:16;38.67;;;23.63;;
39778;SDS011;25454;49.878;8.618;2022-12-11T19:45:18;42.13;;;24.13;;
39778;SDS011;25454;49.878;8.618;2022-12-11T19:50:18;44.47;;;26.37;;
39778;SDS011;25454;49.878;8.618;2022-12-11T19:55:19;43.10;;;25.07;;
39778;SDS011;25454;49.878;8.618;2022-12-11T20:00:20;39.07;;;23.80;;
39778;SDS011;25454;49.878;8.618;2022-12-11T20:05:21;42.57;;;25.93;;
39778;SDS011;25454;49.878;8.618;2022-12-11T20:10:22;42.77;;;25.13;;
39778;SDS011;25454;49.878;8.618;2022-12-11T20:15:22;41.33;;;24.73;;
39778;SDS011;25454;49.878;8.618;2022-12-11T20:20:24;44.50;;;25.17;;
39778;SDS011;25454;49.878;8.618;2022-12-11T20:25:26;48.13;;;26.37;;
39778;SDS011;25454;49.878;8.618;2022-12-11T20:30:30;44.17;;;25.10;;
39778;SDS011;25454;49.878;8.618;2022-12-11T20:35:33;43.23;;;25.53;;
39778;SDS011;25454;49.878;8.618;2022-12-11T20:40:34;42.83;;;23.87;;
39778;SDS011;25454;49.878;8.618;2022-12-11T20:45:35;39.07;;;22.07;;
39778;SDS011;25454;49.878;8.618;2022-12-11T20:50:36;41.57;;;24.23;;
39778;SDS011;25454;49.878;8.618;2022-12-11T20:55:40;40.83;;;24.03;;
39778;SDS011;25454;49.878;8.618;2022-12-11T21:00:41;33.67;;;22.07;;
39778;SDS011;25454;49.878;8.618;2022-12-11T21:05:43;35.83;;;21.60;;
39778;SDS011;25454;49.878;8.618;2022-12-11T21:10:44;38.60;;;22.53;;
39778;SDS011;25454;49.878;8.618;2022-12-11T21:15:45;38.13;;;22.90;;
39778;SDS011;25454;49.878;8.618;2022-12-11T21:20:48;37.27;;;23.13;;
39778;SDS011;25454;49.878;8.618;2022-12-11T21:25:49;36.37;;;21.70;;
39778;SDS011;25454;49.878;8.618;2022-12-11T21:30:50;36.53;;;22.07;;
39778;SDS011;25454;49.878;8.618;2022-12-11T21:35:57;36.03;;;22.00;;
39778;SDS011;25454;49.878;8.618;2022-12-11T21:41:09;37.77;;;22.70;;
39778;SDS011;25454;49.878;8.618;2022-12-11T21:46:15;38.93;;;23.10;;
39778;SDS011;25454;49.878;8.618;2022-12-11T21:51:19;36.43;;;22.47;;
39778;SDS011;25454;49.878;8.618;2022-12-11T21:56:21;37.40;;;22.17;;
39778;SDS011;25454;49.878;8.618;2022-12-11T22:01:25;40.27;;;24.20;;
39778;SDS011;25454;49.878;8.618;2022-12-11T22:06:29;41.03;;;23.80;;
39778;SDS011;25454;49.878;8.618;2022-12-11T22:11:32;38.07;;;21.67;;
39778;SDS011;25454;49.878;8.618;2022-12-11T22:16:33;35.43;;;20.83;;
39778;SDS011;25454;49.878;8.618;2022-12-11T22:21:34;32.77;;;19.23;;
39778;SDS011;25454;49.878;8.618;2022-12-11T22:26:35;31.27;;;19.13;;
39778;SDS011;25454;49.878;8.618;2022-12-11T22:31:39;31.30;;;18.97;;
39778;SDS011;25454;49.878;8.618;2022-12-11T22:36:39;32.67;;;20.07;;
39778;SDS011;25454;49.878;8.618;2022-12-11T22:41:40;33.67;;;19.77;;
39778;SDS011;25454;49.878;8.618;2022-12-11T22:46:41;32.27;;;19.40;;
39778;SDS011;25454;49.878;8.618;2022-12-11T22:51:42;34.43;;;21.20;;
39778;SDS011;25454;49.878;8.618;2022-12-11T22:56:43;35.07;;;20.40;;
39778;SDS011;25454;49.878;8.618;2022-12-11T23:01:44;36.83;;;21.47;;
39778;SDS011;25454;49.878;8.618;2022-12-11T23:06:45;37.07;;;22.10;;
39778;SDS011;25454;49.878;8.618;2022-12-11T23:11:46;33.37;;;19.90;;
39778;SDS011;25454;49.878;8.618;2022-12-11T23:16:46;31.73;;;19.03;;
39778;SDS011;25454;49.878;8.618;2022-12-11T23:21:47;30.53;;;18.73;;
39778;SDS011;25454;49.878;8.618;2022-12-11T23:26:47;32.47;;;19.97;;
39778;SDS011;25454;49.878;8.618;2022-12-11T23:31:48;33.00;;;20.30;;
39778;SDS011;25454;49.878;8.618;2022-12-11T23:36:49;35.90;;;20.93;;
39778;SDS011;25454;49.878;8.618;2022-12-11T23:41:49;34.60;;;20.97;;
39778;SDS011;25454;49.878;8.618;2022-12-11T23:46:50;34.27;;;20.50;;
39778;SDS011;25454;49.878;8.618;2022-12-11T23:51:53;31.13;;;19.33;;
39778;SDS011;25454;49.878;8.618;2022-12-11T23:56:54;34.17;;;20.03;;
